createdAt,value
2018-06-15T03:09:35.542Z,2.00
2018-06-15T03:12:02.068Z,2.00
2018-06-15T03:14:28.517Z,2.80
2018-06-15T03:16:55.305Z,1.00
2018-06-15T03:19:21.753Z,1.00
2018-06-15T03:21:48.325Z,3.20
2018-06-15T03:24:14.860Z,3.20
2018-06-15T03:26:43.428Z,3.60
2018-06-15T03:29:09.884Z,3.60
2018-06-15T03:31:36.508Z,3.60
2018-06-15T03:34:02.979Z,2.40
2018-06-15T03:36:29.769Z,3.20
2018-06-15T03:38:56.261Z,3.60
2018-06-15T03:41:23.498Z,2.40
2018-06-15T03:43:50.314Z,2.80
2018-06-15T03:46:16.774Z,2.00
2018-06-15T03:48:43.260Z,2.00
2018-06-15T03:51:09.712Z,2.00
2018-06-15T03:53:36.658Z,1.60
2018-06-15T03:56:03.446Z,3.20
2018-06-15T03:58:29.914Z,3.60
2018-06-15T04:00:56.679Z,4.00
2018-06-15T04:03:23.164Z,2.00
2018-06-15T04:05:49.700Z,2.00
2018-06-15T04:08:16.548Z,3.20
2018-06-15T04:10:43.028Z,2.40
2018-06-15T04:13:09.486Z,2.00
2018-06-15T04:15:35.932Z,2.00
2018-06-15T04:18:02.670Z,3.20
2018-06-15T04:20:29.118Z,2.00
2018-06-15T04:22:55.617Z,3.20
2018-06-15T04:25:22.452Z,2.00
2018-06-15T04:27:48.960Z,2.00
2018-06-15T04:30:15.422Z,2.40
2018-06-15T04:32:42.152Z,2.00
2018-06-15T04:35:09.477Z,3.20
2018-06-15T04:37:35.946Z,2.00
2018-06-15T04:40:02.694Z,3.20
2018-06-15T04:42:29.148Z,3.60
2018-06-15T04:44:55.597Z,2.40
2018-06-15T04:47:22.360Z,2.40
2018-06-15T04:49:48.804Z,2.00
2018-06-15T04:52:15.244Z,1.40
2018-06-15T04:54:41.977Z,3.60
2018-06-15T04:57:08.436Z,2.80
2018-06-15T04:59:34.880Z,2.40
2018-06-15T05:02:01.663Z,2.00
2018-06-15T05:04:28.147Z,2.00
2018-06-15T05:06:54.628Z,1.40
2018-06-15T05:09:21.375Z,6.00
2018-06-15T05:11:48.625Z,12.00
2018-06-15T05:14:15.068Z,5.00
2018-06-15T05:16:41.803Z,4.20
2018-06-15T05:19:08.257Z,4.00
2018-06-15T05:21:34.716Z,4.00
2018-06-15T05:24:01.457Z,4.20
2018-06-15T05:26:27.950Z,4.00
2018-06-15T05:28:54.409Z,2.00
2018-06-15T05:31:24.508Z,3.40
2018-06-15T05:33:51.488Z,5.00
2018-06-15T05:36:17.929Z,5.00
2018-06-15T05:38:44.379Z,5.00
2018-06-15T05:41:10.832Z,4.20
2018-06-15T05:43:37.565Z,5.40
2018-06-15T05:46:04.025Z,4.00
2018-06-15T05:48:30.493Z,5.60
2018-06-15T05:50:57.233Z,5.20
2018-06-15T05:53:24.363Z,5.00
2018-06-15T05:55:50.828Z,19.60
2018-06-15T05:58:18.985Z,19.80
2018-06-15T06:00:45.439Z,28.20
2018-06-15T06:03:11.897Z,28.20
2018-06-15T06:05:38.649Z,31.80
2018-06-15T06:08:05.233Z,31.60
2018-06-15T06:10:31.701Z,30.20
2018-06-15T06:12:58.457Z,31.60
2018-06-15T06:15:24.914Z,27.00
2018-06-15T06:17:51.376Z,30.80
2018-06-15T06:20:18.128Z,27.20
2018-06-15T06:22:44.576Z,27.20
2018-06-15T06:25:15.164Z,23.20
2018-06-15T06:27:41.991Z,20.80
2018-06-15T06:30:08.453Z,15.60
2018-06-15T06:32:34.942Z,19.80
2018-06-15T06:35:03.104Z,16.40
2018-06-15T06:37:29.560Z,15.40
2018-06-15T06:39:56.001Z,17.80
2018-06-15T06:42:22.750Z,14.00
2018-06-15T06:44:49.226Z,17.20
2018-06-15T06:47:15.673Z,14.60
2018-06-15T06:49:43.052Z,18.60
2018-06-15T06:52:09.515Z,13.80
2018-06-15T06:54:35.973Z,15.40
2018-06-15T06:57:03.388Z,16.20
2018-06-15T06:59:29.866Z,16.00
2018-06-15T07:01:56.326Z,18.60
2018-06-15T07:04:23.080Z,16.00
2018-06-15T07:06:49.632Z,16.00
2018-06-15T07:09:16.104Z,14.00
2018-06-15T07:11:42.879Z,15.60
2018-06-15T07:14:09.364Z,15.40
2018-06-15T07:16:35.837Z,15.40
2018-06-15T07:19:02.584Z,16.20
2018-06-15T07:21:29.049Z,12.00
2018-06-15T07:23:56.465Z,17.40
2018-06-15T07:26:24.175Z,12.80
2018-06-15T07:28:50.660Z,16.20
2018-06-15T07:31:17.129Z,15.00
2018-06-15T07:33:44.323Z,16.20
2018-06-15T07:36:10.773Z,13.40
2018-06-15T07:38:37.557Z,13.80
2018-06-15T07:41:04.313Z,16.00
2018-06-15T07:43:30.797Z,13.80
2018-06-15T07:45:57.257Z,14.40
2018-06-15T07:48:24.011Z,13.20
2018-06-15T07:50:50.481Z,12.40
2018-06-15T07:53:16.939Z,13.00
2018-06-15T07:55:44.388Z,13.40
2018-06-15T07:58:10.843Z,14.40
2018-06-15T08:00:37.292Z,12.60
2018-06-15T08:03:04.059Z,13.00
2018-06-15T08:05:31.179Z,16.00
2018-06-15T08:07:57.649Z,12.20
2018-06-15T08:10:24.437Z,14.20
2018-06-15T08:12:53.048Z,12.60
2018-06-15T08:15:19.533Z,14.00
2018-06-15T08:17:46.318Z,15.00
2018-06-15T08:20:12.795Z,13.20
2018-06-15T08:22:39.280Z,15.40
2018-06-15T08:25:06.028Z,12.20
2018-06-15T08:27:32.543Z,12.00
2018-06-15T08:29:59.052Z,12.60
2018-06-15T08:32:25.807Z,12.80
2018-06-15T08:34:52.267Z,15.80
2018-06-15T08:37:18.734Z,15.40
2018-06-15T08:39:46.156Z,15.20
2018-06-15T08:42:13.632Z,12.80
2018-06-15T08:44:40.093Z,12.00
2018-06-15T08:47:07.614Z,15.00
2018-06-15T08:49:34.221Z,13.00
2018-06-15T08:52:00.674Z,12.60
2018-06-15T08:54:27.423Z,12.20
2018-06-15T08:56:53.881Z,12.00
2018-06-15T08:59:20.347Z,12.00
2018-06-15T09:01:47.102Z,10.80
2018-06-15T09:04:13.623Z,9.00
2018-06-15T09:06:40.089Z,12.40
2018-06-15T09:09:06.545Z,13.00
2018-06-15T09:11:33.049Z,12.40
2018-06-15T09:14:00.501Z,12.60
2018-06-15T09:16:26.985Z,12.00
2018-06-15T09:18:54.200Z,15.80
2018-06-15T09:21:20.958Z,10.80
2018-06-15T09:23:47.396Z,13.60
2018-06-15T09:26:13.882Z,11.20
2018-06-15T09:28:40.613Z,9.00
2018-06-15T09:31:07.065Z,10.00
2018-06-15T09:33:33.553Z,15.20
2018-06-15T09:36:00.316Z,12.80
2018-06-15T09:38:26.771Z,9.40
2018-06-15T09:40:53.237Z,10.20
2018-06-15T09:43:20.490Z,10.60
2018-06-15T09:45:47.234Z,10.20
2018-06-15T09:48:13.692Z,10.60
2018-06-15T09:50:40.434Z,11.80
2018-06-15T09:53:07.546Z,11.20
2018-06-15T09:55:35.876Z,15.00
2018-06-15T09:58:02.622Z,9.80
2018-06-15T10:00:30.298Z,11.80
2018-06-15T10:02:56.760Z,12.60
2018-06-15T10:05:23.481Z,10.80
2018-06-15T10:07:49.950Z,15.80
2018-06-15T10:10:16.413Z,12.40
2018-06-15T10:12:43.445Z,9.00
2018-06-15T10:15:10.568Z,11.20
2018-06-15T10:17:37.041Z,10.40
2018-06-15T10:20:03.823Z,12.20
2018-06-15T10:22:30.328Z,12.40
2018-06-15T10:24:56.808Z,10.80
2018-06-15T10:27:24.501Z,10.20
2018-06-15T10:29:51.840Z,9.00
2018-06-15T10:32:18.278Z,9.80
2018-06-15T10:34:45.041Z,9.20
2018-06-15T10:37:11.500Z,14.40
2018-06-15T10:39:39.628Z,11.40
2018-06-15T10:42:06.363Z,12.00
2018-06-15T10:44:32.817Z,11.20
2018-06-15T10:46:59.276Z,10.20
2018-06-15T10:49:26.064Z,10.00
2018-06-15T10:51:52.524Z,8.80
2018-06-15T10:54:18.984Z,12.00
2018-06-15T10:56:45.724Z,8.00
2018-06-15T10:59:13.423Z,12.20
2018-06-15T11:01:39.865Z,12.00
2018-06-15T11:04:06.609Z,9.60
2018-06-15T11:06:33.040Z,9.20
2018-06-15T11:08:59.534Z,9.60
2018-06-15T11:11:26.339Z,8.00
2018-06-15T11:13:52.789Z,9.00
2018-06-15T11:16:20.974Z,11.00
2018-06-15T11:18:48.482Z,8.80
2018-06-15T11:21:14.920Z,9.00
2018-06-15T11:23:41.372Z,7.20
2018-06-15T11:26:10.628Z,10.40
2018-06-15T11:28:37.398Z,10.80
2018-06-15T11:31:04.696Z,12.00
2018-06-15T11:33:32.987Z,8.80
2018-06-15T11:35:59.441Z,9.40
2018-06-15T11:38:25.951Z,9.20
2018-06-15T11:40:52.705Z,8.60
2018-06-15T11:43:19.801Z,10.20
2018-06-15T11:45:46.237Z,9.20
2018-06-15T11:48:13.880Z,8.20
2018-06-15T11:50:40.468Z,8.80
2018-06-15T11:53:06.964Z,10.20
2018-06-15T11:55:33.705Z,9.20
2018-06-15T11:58:00.152Z,10.60
2018-06-15T12:00:26.665Z,8.80
2018-06-15T12:02:53.397Z,9.60
2018-06-15T12:05:19.833Z,10.40
2018-06-15T12:07:47.343Z,9.60
2018-06-15T12:10:14.621Z,8.60
2018-06-15T12:12:41.063Z,9.20
2018-06-15T12:15:07.820Z,10.00
2018-06-15T12:17:34.308Z,8.80
2018-06-15T12:20:00.779Z,9.20
2018-06-15T12:22:28.363Z,10.20
2018-06-15T12:24:54.808Z,10.20
2018-06-15T12:27:22.418Z,9.20
2018-06-15T12:29:49.177Z,12.00
2018-06-15T12:32:15.637Z,8.00
2018-06-15T12:34:42.111Z,9.00
2018-06-15T12:37:09.401Z,10.20
2018-06-15T12:39:35.651Z,9.00
2018-06-15T12:42:03.098Z,9.00
2018-06-15T12:44:29.831Z,8.00
2018-06-15T12:46:56.472Z,9.00
2018-06-15T12:49:23.525Z,8.00
2018-06-15T12:51:50.311Z,7.20
2018-06-15T12:54:16.771Z,8.20
2018-06-15T12:56:43.059Z,11.60
2018-06-15T12:59:09.854Z,9.60
2018-06-15T13:01:36.379Z,8.00
2018-06-15T13:04:02.843Z,11.00
2018-06-15T13:06:30.265Z,8.20
2018-06-15T13:08:56.712Z,9.80
2018-06-15T13:11:23.160Z,8.40
2018-06-15T13:13:49.900Z,8.80
2018-06-15T13:16:16.340Z,8.40
2018-06-15T13:18:42.781Z,8.00
2018-06-15T13:21:09.531Z,9.20
2018-06-15T13:23:36.758Z,10.60
2018-06-15T13:26:03.192Z,9.00
2018-06-15T13:28:29.933Z,9.80
2018-06-15T13:30:56.413Z,9.40
2018-06-15T13:33:23.689Z,10.00
2018-06-15T13:35:50.440Z,8.40
2018-06-15T13:38:16.889Z,11.40
2018-06-15T13:40:43.349Z,9.00
2018-06-15T13:43:11.080Z,11.80
2018-06-15T13:48:10.401Z,10.00
2018-06-15T13:50:37.174Z,8.20
2018-06-15T13:53:03.633Z,10.00
2018-06-15T13:55:30.128Z,9.00
2018-06-15T13:57:56.874Z,9.00
2018-06-15T14:00:23.385Z,12.00
2018-06-15T14:02:49.836Z,9.00
2018-06-15T14:05:17.784Z,10.20
2018-06-15T14:07:44.843Z,8.00
2018-06-15T14:10:11.286Z,9.00
2018-06-15T14:12:38.518Z,9.80
2018-06-15T14:15:05.512Z,9.80
2018-06-15T14:17:32.864Z,9.00
2018-06-15T14:19:59.612Z,9.00
2018-06-15T14:22:26.209Z,9.20
2018-06-15T14:24:52.661Z,10.20
2018-06-15T14:27:19.437Z,11.40
2018-06-15T14:29:47.384Z,8.60
2018-06-15T14:32:13.849Z,11.00
2018-06-15T14:34:40.889Z,9.40
2018-06-15T14:37:07.358Z,12.00
2018-06-15T14:39:33.799Z,9.40
2018-06-15T14:42:00.542Z,9.00
2018-06-15T14:44:27.026Z,12.00
2018-06-15T14:46:54.463Z,10.80
2018-06-15T14:49:21.225Z,10.20
2018-06-15T14:51:49.208Z,10.20
2018-06-15T14:54:15.652Z,10.20
2018-06-15T14:56:44.582Z,12.60
2018-06-15T14:59:11.034Z,7.60
2018-06-15T15:01:38.477Z,9.60
2018-06-15T15:04:07.701Z,10.00
2018-06-15T15:06:35.612Z,13.00
2018-06-15T15:09:02.065Z,12.80
2018-06-15T15:11:28.531Z,10.80
2018-06-15T15:13:56.076Z,12.00
2018-06-15T15:16:22.838Z,11.20
2018-06-15T15:18:49.326Z,13.20
2018-06-15T15:21:16.616Z,11.60
2018-06-15T16:05:27.425Z,11.80
2018-06-15T16:07:55.828Z,7.40
2018-06-15T16:10:26.371Z,6.00
2018-06-15T16:12:55.158Z,8.00
2018-06-15T16:43:13.417Z,9.60
2018-06-15T16:45:40.688Z,9.80
2018-06-15T16:48:07.784Z,10.80
2018-06-15T16:50:35.032Z,10.00
2018-06-15T16:53:01.840Z,13.00
2018-06-15T16:55:29.698Z,6.80
2018-06-15T16:57:57.231Z,8.00
2018-06-15T17:00:24.085Z,9.20
2018-06-15T17:02:51.469Z,10.20
2018-06-15T17:05:19.617Z,9.80
2018-06-15T17:07:46.320Z,9.00
2018-06-15T17:10:13.230Z,11.60
2018-06-15T17:12:40.142Z,12.00
2018-06-15T17:15:06.814Z,10.60
2018-06-15T17:17:34.594Z,10.40
2018-06-15T17:20:01.167Z,8.00
2018-06-15T17:22:28.612Z,9.00
2018-06-15T17:24:56.553Z,8.20
2018-06-15T17:27:23.219Z,7.60
2018-06-15T17:29:49.911Z,10.00
2018-06-15T17:32:16.766Z,9.60
2018-06-15T17:34:44.385Z,9.00
2018-06-15T17:37:10.955Z,9.80
2018-06-15T17:39:38.977Z,9.20
2018-06-15T17:42:05.569Z,8.40
2018-06-15T17:44:33.533Z,10.00
2018-06-15T17:47:02.317Z,10.20
2018-06-15T17:49:28.783Z,9.40
2018-06-15T17:51:55.238Z,11.20
2018-06-15T17:54:24.056Z,12.00
2018-06-15T17:56:50.572Z,11.20
2018-06-15T17:59:17.144Z,10.80
2018-06-15T18:01:46.455Z,10.00
2018-06-15T18:04:16.445Z,8.40
2018-06-15T19:35:45.179Z,6.60
2018-06-15T19:38:11.648Z,6.00
2018-06-15T19:40:39.263Z,7.20
2018-06-15T19:43:06.078Z,7.20
2018-06-15T19:45:33.054Z,4.80
2018-06-15T19:47:59.512Z,10.20
2018-06-15T19:50:26.277Z,8.20
2018-06-15T19:52:53.528Z,5.60
2018-06-15T19:55:19.991Z,5.00
2018-06-15T19:57:46.740Z,5.20
2018-06-15T20:00:14.580Z,4.80
2018-06-15T20:02:41.033Z,5.80
2018-06-15T20:05:07.823Z,7.80
2018-06-15T20:07:35.116Z,7.00
2018-06-15T20:10:02.513Z,7.00
2018-06-15T20:12:29.446Z,7.00
2018-06-15T20:14:56.427Z,7.60
2018-06-15T20:17:24.037Z,5.00
2018-06-15T20:19:52.273Z,7.00
2018-06-15T20:22:19.464Z,5.00
2018-06-15T20:24:47.162Z,6.20
2018-06-15T20:27:15.011Z,5.00
2018-06-15T20:29:41.468Z,5.00
2018-06-15T20:32:07.922Z,5.00
2018-06-15T20:34:37.613Z,5.00
2018-06-15T20:37:08.067Z,6.20
2018-06-15T20:39:34.548Z,5.20
2018-06-15T20:42:01.345Z,7.40
2018-06-15T20:44:27.809Z,7.60
2018-06-15T20:46:54.261Z,8.00
2018-06-15T20:49:21.177Z,8.00
2018-06-15T20:51:48.621Z,11.00
2018-06-15T20:54:15.145Z,8.00
2018-06-15T20:56:42.132Z,6.00
2018-06-15T20:59:09.645Z,7.20
2018-06-15T21:01:36.104Z,8.00
2018-06-15T21:04:03.697Z,9.60
2018-06-15T21:06:30.330Z,10.00
2018-06-15T21:08:57.776Z,10.00
2018-06-15T21:11:24.601Z,8.80
2018-06-15T21:20:38.239Z,7.20
2018-06-15T21:23:04.704Z,7.00
2018-06-15T21:25:32.175Z,6.20
2018-06-15T21:27:59.283Z,4.60
2018-06-15T21:30:28.764Z,8.00
2018-06-15T21:32:55.578Z,7.20
2018-06-15T21:35:22.044Z,9.20
2018-06-15T21:37:53.879Z,7.40
2018-06-15T21:40:29.792Z,7.00
2018-06-15T21:42:59.529Z,11.40
2018-06-15T21:45:26.887Z,12.60
2018-06-15T21:47:53.349Z,10.40
2018-06-15T21:50:19.784Z,7.00
2018-06-15T21:52:47.575Z,8.40
2018-06-15T21:55:14.035Z,10.00
2018-06-15T21:57:41.229Z,8.00
2018-06-15T22:00:07.978Z,7.00
2018-06-15T22:02:34.435Z,6.20
2018-06-15T22:05:00.929Z,7.00
2018-06-15T22:07:28.332Z,6.80
2018-06-15T22:09:55.617Z,7.40
2018-06-15T22:12:22.077Z,7.20
2018-06-15T22:14:48.826Z,7.40
2018-06-15T22:17:15.277Z,5.00
2018-06-15T22:19:41.728Z,7.00
2018-06-15T22:22:08.502Z,5.00
2018-06-15T22:24:34.953Z,8.00
2018-06-15T22:27:01.393Z,8.00
2018-06-15T22:29:28.129Z,9.20
2018-06-15T22:31:54.605Z,7.40
2018-06-15T22:34:21.577Z,5.20
2018-06-15T22:36:48.350Z,6.00
2018-06-15T22:39:14.793Z,5.40
2018-06-15T22:41:41.257Z,7.00
2018-06-15T22:44:07.987Z,6.80
2018-06-15T22:46:34.425Z,6.00
2018-06-15T22:49:04.306Z,5.60
2018-06-15T22:51:32.617Z,4.00
2018-06-15T22:53:59.062Z,6.40
2018-06-15T22:56:26.514Z,5.20
2018-06-15T22:58:56.225Z,6.80
2018-06-15T23:01:22.700Z,5.20
2018-06-15T23:03:49.353Z,7.00
2018-06-15T23:06:16.420Z,5.80
2018-06-15T23:08:43.172Z,8.20
2018-06-15T23:11:09.622Z,5.20
2018-06-15T23:13:36.077Z,7.80
2018-06-15T23:16:02.829Z,6.20
2018-06-15T23:18:29.301Z,7.00
2018-06-15T23:20:56.449Z,6.80
2018-06-15T23:23:23.362Z,5.00
2018-06-15T23:25:51.107Z,7.40
2018-06-15T23:28:18.126Z,8.00
2018-06-15T23:30:44.885Z,8.00
2018-06-15T23:33:11.342Z,6.80
2018-06-15T23:35:37.825Z,6.60
2018-06-15T23:38:04.378Z,6.00
2018-06-15T23:40:31.278Z,7.00
2018-06-15T23:42:57.724Z,6.40
2018-06-15T23:45:24.191Z,6.00
2018-06-15T23:47:50.652Z,6.00
2018-06-15T23:50:17.397Z,4.00
2018-06-15T23:52:43.844Z,8.80
2018-06-15T23:55:10.399Z,7.00
2018-06-15T23:57:40.696Z,6.00
